createdAt,value
2022-08-17T00:00:35.042Z,61.39
2022-08-17T00:03:10.015Z,61.46
2022-08-17T00:05:42.014Z,62.08
2022-08-17T00:08:10.236Z,62.39
2022-08-17T00:10:40.323Z,62.31
2022-08-17T00:13:09.880Z,62.18
2022-08-17T00:15:38.451Z,61.74
2022-08-17T00:19:01.685Z,62.04
2022-08-17T00:20:54.584Z,62.57
2022-08-17T00:23:23.058Z,62.67
2022-08-17T00:25:53.166Z,62.90
2022-08-17T00:28:21.211Z,63.39
2022-08-17T00:30:53.521Z,62.82
2022-08-17T00:33:24.372Z,63.56
2022-08-17T00:35:52.487Z,63.98
2022-08-17T00:38:20.521Z,63.70
2022-08-17T00:40:51.842Z,63.35
2022-08-17T00:43:30.471Z,63.22
2022-08-17T00:45:58.950Z,62.65
2022-08-17T00:48:29.839Z,62.17
2022-08-17T00:51:01.634Z,62.94
2022-08-17T00:53:31.628Z,62.60
2022-08-17T00:56:01.622Z,62.58
2022-08-17T00:58:36.377Z,62.25
2022-08-17T01:01:05.377Z,62.06
2022-08-17T01:03:33.670Z,61.62
2022-08-17T01:06:02.227Z,60.95
2022-08-17T01:08:31.549Z,60.76
2022-08-17T01:11:02.355Z,60.62
2022-08-17T01:13:40.766Z,60.41
2022-08-17T01:16:15.932Z,60.04
2022-08-17T01:18:45.342Z,60.43
2022-08-17T01:21:17.579Z,60.58
2022-08-17T01:23:46.810Z,60.62
2022-08-17T01:26:14.783Z,60.19
2022-08-17T01:28:53.934Z,59.67
2022-08-17T01:31:25.402Z,59.83
2022-08-17T01:33:53.285Z,59.57
2022-08-17T01:36:21.215Z,59.33
2022-08-17T01:38:50.524Z,59.89
2022-08-17T01:41:18.666Z,60.07
2022-08-17T01:43:49.562Z,60.10
2022-08-17T01:46:21.969Z,59.82
2022-08-17T01:48:51.195Z,60.19
2022-08-17T01:51:19.791Z,59.82
2022-08-17T01:53:53.160Z,59.81
2022-08-17T01:56:24.623Z,59.93
2022-08-17T01:58:52.623Z,60.09
2022-08-17T02:01:28.027Z,60.58
2022-08-17T02:04:00.586Z,61.44
2022-08-17T02:06:31.318Z,62.00
2022-08-17T02:09:16.706Z,61.79
2022-08-17T02:11:46.152Z,61.96
2022-08-17T02:14:14.671Z,62.14
2022-08-17T02:16:43.019Z,61.60
2022-08-17T02:19:12.857Z,61.12
2022-08-17T02:21:42.250Z,60.91
2022-08-17T02:24:11.885Z,61.19
2022-08-17T02:26:41.137Z,61.34
2022-08-17T02:29:09.020Z,60.94
2022-08-17T02:31:37.828Z,60.55
2022-08-17T02:34:06.236Z,60.80
2022-08-17T02:36:35.249Z,61.00
2022-08-17T02:39:04.211Z,60.78
2022-08-17T02:41:32.073Z,60.62
2022-08-17T02:44:01.424Z,60.38
2022-08-17T02:46:31.021Z,60.54
2022-08-17T02:48:58.954Z,60.27
2022-08-17T02:51:27.400Z,61.01
2022-08-17T02:54:35.752Z,62.03
2022-08-17T02:56:43.497Z,62.02
2022-08-17T02:59:12.733Z,62.62
2022-08-17T03:01:40.884Z,62.64
2022-08-17T03:04:08.830Z,62.61
2022-08-17T03:06:37.387Z,63.05
2022-08-17T03:09:05.368Z,63.15
2022-08-17T03:11:33.256Z,63.10
2022-08-17T03:14:00.976Z,63.40
2022-08-17T03:16:30.232Z,63.75
2022-08-17T03:18:58.071Z,63.97
2022-08-17T03:21:25.984Z,64.25
2022-08-17T03:23:54.435Z,64.22
2022-08-17T03:26:22.570Z,63.74
2022-08-17T03:28:50.441Z,63.67
2022-08-17T03:31:18.674Z,63.97
2022-08-17T03:33:47.953Z,63.60
2022-08-17T03:36:15.808Z,63.26
2022-08-17T03:38:43.705Z,63.43
2022-08-17T03:41:13.938Z,63.36
2022-08-17T03:43:41.801Z,63.49
2022-08-17T03:46:35.069Z,63.18
2022-08-17T03:49:23.557Z,62.94
2022-08-17T03:52:08.964Z,63.10
2022-08-17T03:54:54.297Z,63.44
2022-08-17T03:57:22.421Z,62.59
2022-08-17T03:59:50.675Z,62.65
2022-08-17T04:02:21.215Z,62.49
2022-08-17T04:04:51.316Z,62.67
2022-08-17T04:07:19.841Z,62.61
2022-08-17T04:09:47.735Z,62.15
2022-08-17T04:12:16.576Z,62.42
2022-08-17T04:14:52.233Z,62.63
2022-08-17T04:17:23.628Z,62.48
2022-08-17T04:19:53.223Z,62.67
2022-08-17T04:22:30.152Z,62.17
2022-08-17T04:25:05.170Z,61.75
2022-08-17T04:27:33.131Z,61.77
2022-08-17T04:30:01.082Z,60.35
2022-08-17T04:33:04.735Z,59.38
2022-08-17T04:35:21.207Z,58.60
2022-08-17T04:37:49.263Z,58.67
2022-08-17T04:40:35.117Z,58.55
2022-08-17T04:43:05.046Z,58.04
2022-08-17T04:45:32.981Z,58.28
2022-08-17T04:48:01.281Z,58.06
2022-08-17T04:50:30.679Z,57.78
2022-08-17T04:52:58.709Z,58.16
2022-08-17T04:55:26.971Z,58.73
2022-08-17T04:57:54.814Z,58.92
2022-08-17T05:00:25.632Z,59.07
2022-08-17T05:02:55.932Z,59.18
2022-08-17T05:05:26.515Z,58.92
2022-08-17T05:07:57.511Z,59.13
2022-08-17T05:10:27.584Z,58.75
2022-08-17T05:12:59.588Z,58.36
2022-08-17T05:15:28.008Z,58.26
2022-08-17T05:17:56.101Z,58.10
2022-08-17T05:20:24.826Z,58.28
2022-08-17T05:22:54.441Z,57.73
2022-08-17T05:25:25.856Z,57.13
2022-08-17T05:27:55.097Z,57.52
2022-08-17T05:30:24.343Z,57.17
2022-08-17T05:32:53.997Z,56.62
2022-08-17T05:35:22.594Z,56.86
2022-08-17T05:37:50.758Z,55.53
2022-08-17T05:40:19.933Z,55.44
2022-08-17T05:42:49.802Z,55.35
2022-08-17T05:45:18.946Z,54.62
2022-08-17T05:48:08.128Z,54.19
2022-08-17T05:50:45.179Z,54.09
2022-08-17T05:53:23.863Z,53.23
2022-08-17T05:56:13.119Z,53.25
2022-08-17T05:59:04.136Z,52.91
2022-08-17T06:01:39.858Z,53.41
2022-08-17T06:04:17.865Z,51.98
2022-08-17T06:06:50.710Z,51.97
2022-08-17T06:09:34.175Z,50.69
2022-08-17T06:12:07.803Z,50.49
2022-08-17T06:14:53.417Z,49.49
2022-08-17T06:17:22.965Z,49.18
2022-08-17T06:19:54.511Z,48.51
2022-08-17T06:22:25.124Z,49.30
2022-08-17T06:24:56.720Z,49.23
2022-08-17T06:27:30.991Z,50.02
2022-08-17T06:30:09.145Z,50.22
2022-08-17T06:32:38.146Z,49.67
2022-08-17T06:35:08.319Z,48.94
2022-08-17T06:37:50.538Z,48.39
2022-08-17T06:40:33.791Z,48.70
2022-08-17T06:43:12.849Z,48.81
2022-08-17T06:45:49.098Z,48.39
2022-08-17T06:48:24.287Z,49.37
2022-08-17T06:50:55.054Z,48.11
2022-08-17T06:53:26.231Z,49.80
2022-08-17T06:55:59.842Z,49.08
2022-08-17T06:58:31.257Z,49.04
2022-08-17T07:01:05.690Z,47.72
2022-08-17T07:03:37.650Z,47.07
2022-08-17T07:06:09.242Z,46.40
2022-08-17T07:08:46.176Z,46.97
2022-08-17T07:11:17.246Z,47.26
2022-08-17T07:13:51.701Z,45.44
2022-08-17T07:16:27.849Z,48.59
2022-08-17T07:18:57.294Z,48.78
2022-08-17T07:21:38.604Z,49.48
2022-08-17T07:24:26.329Z,49.39
2022-08-17T07:27:07.436Z,49.35
2022-08-17T07:29:40.285Z,49.15
2022-08-17T07:32:11.698Z,48.33
2022-08-17T07:35:23.054Z,47.97
2022-08-17T07:37:54.466Z,47.13
2022-08-17T07:40:26.396Z,46.30
2022-08-17T07:43:22.340Z,46.64
2022-08-17T07:46:18.374Z,47.14
2022-08-17T07:48:50.901Z,45.68
2022-08-17T07:51:22.270Z,46.39
2022-08-17T07:53:50.309Z,46.14
2022-08-17T07:56:40.409Z,44.85
2022-08-17T07:59:11.397Z,42.61
2022-08-17T08:01:42.024Z,40.14
2022-08-17T08:04:58.840Z,39.82
2022-08-17T08:07:26.956Z,38.67
2022-08-17T08:10:04.914Z,38.68
2022-08-17T08:12:36.945Z,39.27
2022-08-17T08:15:13.040Z,38.19
2022-08-17T08:17:51.274Z,38.80
2022-08-17T08:20:51.660Z,39.52
2022-08-17T08:23:21.720Z,38.56
2022-08-17T08:26:00.434Z,37.23
2022-08-17T08:28:35.032Z,36.79
2022-08-17T08:31:06.564Z,36.29
2022-08-17T08:33:47.883Z,35.25
2022-08-17T08:37:12.568Z,34.57
2022-08-17T08:39:20.753Z,32.89
2022-08-17T08:41:54.618Z,35.18
2022-08-17T08:44:59.798Z,33.84
2022-08-17T08:47:35.388Z,34.05
2022-08-17T08:50:36.996Z,34.45
2022-08-17T08:53:14.307Z,34.11
2022-08-17T08:55:49.456Z,35.12
2022-08-17T08:58:31.604Z,36.10
2022-08-17T09:01:25.626Z,34.79
2022-08-17T09:04:18.346Z,34.41
2022-08-17T09:06:56.458Z,33.86
2022-08-17T09:09:37.007Z,35.20
2022-08-17T09:12:10.076Z,33.73
2022-08-17T09:14:46.592Z,33.39
2022-08-17T09:17:19.136Z,33.41
2022-08-17T09:19:50.270Z,34.08
2022-08-17T09:22:31.343Z,33.43
2022-08-17T09:25:08.102Z,34.88
2022-08-17T09:27:52.041Z,35.26
2022-08-17T09:30:20.688Z,35.52
2022-08-17T09:32:55.345Z,35.28
2022-08-17T09:35:33.613Z,35.69
2022-08-17T09:38:16.511Z,35.41
2022-08-17T09:40:50.464Z,35.16
2022-08-17T09:43:27.252Z,35.11
2022-08-17T09:45:58.169Z,36.08
2022-08-17T09:48:28.699Z,35.87
2022-08-17T09:51:04.456Z,36.41
2022-08-17T09:53:34.095Z,36.55
2022-08-17T09:56:12.509Z,36.30
2022-08-17T09:58:51.626Z,36.91
2022-08-17T10:01:29.107Z,37.05
2022-08-17T10:04:18.770Z,36.78
2022-08-17T10:06:52.772Z,36.03
2022-08-17T10:09:29.987Z,35.64
2022-08-17T10:12:21.493Z,37.05
2022-08-17T10:15:13.368Z,37.64
2022-08-17T10:17:46.505Z,37.59
2022-08-17T10:20:18.776Z,36.76
2022-08-17T10:23:06.826Z,36.00
2022-08-17T10:26:09.959Z,36.11
2022-08-17T10:28:43.520Z,37.59
2022-08-17T10:34:19.152Z,38.32
2022-08-17T10:36:52.662Z,38.98
2022-08-17T10:39:27.337Z,38.47
2022-08-17T10:41:58.797Z,38.32
2022-08-17T10:44:46.830Z,38.79
2022-08-17T10:47:16.700Z,38.76
2022-08-17T10:49:48.050Z,39.03
2022-08-17T10:52:48.743Z,39.20
2022-08-17T10:55:18.929Z,37.99
2022-08-17T10:57:49.597Z,38.52
2022-08-17T11:00:59.229Z,38.73
2022-08-17T11:03:27.694Z,39.50
2022-08-17T11:06:01.398Z,40.67
2022-08-17T11:09:00.725Z,40.46
2022-08-17T11:11:52.693Z,40.50
2022-08-17T11:14:50.122Z,40.52
2022-08-17T11:17:41.498Z,40.51
2022-08-17T11:20:32.393Z,41.52
2022-08-17T11:23:18.380Z,41.68
2022-08-17T11:25:50.545Z,41.85
2022-08-17T11:28:21.062Z,42.35
2022-08-17T11:30:50.878Z,42.59
2022-08-17T11:33:53.539Z,42.61
2022-08-17T11:36:34.689Z,44.45
2022-08-17T11:39:06.506Z,44.45
2022-08-17T11:41:41.693Z,44.01
2022-08-17T11:44:24.069Z,44.82
2022-08-17T11:47:27.666Z,44.66
2022-08-17T11:50:27.880Z,44.91
2022-08-17T11:52:56.209Z,43.79
2022-08-17T11:56:13.272Z,43.11
2022-08-17T11:58:42.834Z,43.66
2022-08-17T12:01:13.798Z,44.33
2022-08-17T12:03:55.812Z,43.57
2022-08-17T12:06:49.426Z,42.28
2022-08-17T12:09:20.131Z,41.37
2022-08-17T12:11:55.382Z,42.15
2022-08-17T12:15:08.952Z,42.83
2022-08-17T12:17:51.901Z,44.29
2022-08-17T12:20:23.214Z,43.60
2022-08-17T12:22:57.607Z,43.39
2022-08-17T12:25:31.386Z,41.08
2022-08-17T12:28:06.070Z,41.25
2022-08-17T12:30:36.412Z,39.49
2022-08-17T12:33:04.455Z,39.22
2022-08-17T12:35:35.360Z,39.15
2022-08-17T12:38:06.453Z,41.20
2022-08-17T12:40:55.660Z,39.54
2022-08-17T12:43:29.219Z,40.42
2022-08-17T12:46:01.157Z,40.10
2022-08-17T12:48:59.618Z,37.97
2022-08-17T12:51:29.385Z,36.12
2022-08-17T12:53:58.638Z,34.74
2022-08-17T12:56:26.695Z,33.05
2022-08-17T12:58:55.582Z,32.13
2022-08-17T13:01:25.141Z,32.67
2022-08-17T13:03:57.215Z,34.60
2022-08-17T13:06:31.461Z,34.37
2022-08-17T13:09:10.165Z,36.20
2022-08-17T13:11:48.109Z,33.51
2022-08-17T13:14:18.350Z,34.81
2022-08-17T13:16:52.790Z,34.71
2022-08-17T13:19:40.150Z,34.90
2022-08-17T13:22:12.762Z,36.48
2022-08-17T13:24:53.050Z,38.23
2022-08-17T13:27:23.046Z,36.45
2022-08-17T13:29:53.940Z,35.35
2022-08-17T13:32:24.424Z,34.03
2022-08-17T13:35:11.857Z,31.28
2022-08-17T13:37:58.430Z,29.79
2022-08-17T13:40:44.094Z,28.54
2022-08-17T13:43:12.981Z,29.91
2022-08-17T13:45:52.951Z,28.17
2022-08-17T13:48:23.910Z,30.06
2022-08-17T13:51:07.184Z,30.04
2022-08-17T13:53:50.515Z,29.10
2022-08-17T13:56:45.239Z,27.65
2022-08-17T13:59:15.494Z,27.12
2022-08-17T14:01:48.522Z,28.12
2022-08-17T14:04:25.516Z,28.74
2022-08-17T14:06:57.104Z,28.61
2022-08-17T14:09:34.861Z,28.42
2022-08-17T14:12:09.648Z,31.29
2022-08-17T14:14:37.666Z,32.68
2022-08-17T14:17:06.189Z,32.80
2022-08-17T14:19:35.922Z,33.26
2022-08-17T14:22:04.937Z,33.07
2022-08-17T14:24:35.102Z,34.04
2022-08-17T14:27:05.520Z,32.91
2022-08-17T14:29:35.196Z,34.15
2022-08-17T14:32:08.489Z,35.70
2022-08-17T14:34:36.345Z,38.09
2022-08-17T14:37:04.332Z,37.50
2022-08-17T14:39:32.773Z,38.17
2022-08-17T14:42:02.100Z,38.33
2022-08-17T14:44:29.976Z,40.21
2022-08-17T14:46:59.260Z,39.66
2022-08-17T14:49:28.075Z,36.10
2022-08-17T14:51:55.880Z,32.85
2022-08-17T14:54:33.566Z,30.77
2022-08-17T14:57:22.877Z,31.45
2022-08-17T14:59:54.245Z,28.73
2022-08-17T15:02:30.251Z,28.67
2022-08-17T15:05:02.556Z,30.17
2022-08-17T15:07:31.361Z,28.87
2022-08-17T15:10:01.339Z,28.34
2022-08-17T15:12:33.274Z,28.80
2022-08-17T15:15:04.577Z,29.74
2022-08-17T15:17:44.817Z,29.18
2022-08-17T15:20:15.798Z,32.03
2022-08-17T15:22:44.399Z,29.12
2022-08-17T15:25:13.132Z,28.88
2022-08-17T15:27:41.267Z,29.55
2022-08-17T15:30:10.508Z,30.79
2022-08-17T15:32:46.847Z,32.91
2022-08-17T15:35:28.296Z,33.06
2022-08-17T15:37:58.494Z,33.44
2022-08-17T15:40:26.693Z,33.24
2022-08-17T15:42:55.005Z,34.56
2022-08-17T15:45:26.693Z,34.94
2022-08-17T15:47:56.045Z,35.11
2022-08-17T15:50:24.027Z,36.71
2022-08-17T15:53:00.855Z,37.46
2022-08-17T15:55:30.411Z,36.50
2022-08-17T15:57:58.385Z,36.34
2022-08-17T16:00:28.411Z,36.53
2022-08-17T16:03:46.438Z,38.30
2022-08-17T16:05:47.781Z,38.49
2022-08-17T16:08:20.682Z,38.76
2022-08-17T16:10:49.904Z,39.39
2022-08-17T16:13:18.294Z,40.02
2022-08-17T16:15:56.648Z,40.19
2022-08-17T16:18:31.029Z,39.37
2022-08-17T16:21:21.465Z,38.83
2022-08-17T16:23:51.318Z,39.56
2022-08-17T16:26:19.922Z,39.45
2022-08-17T16:28:47.838Z,39.51
2022-08-17T16:31:15.888Z,41.21
2022-08-17T16:33:56.889Z,41.80
2022-08-17T16:36:33.497Z,42.13
2022-08-17T16:39:01.629Z,42.04
2022-08-17T16:41:44.983Z,42.06
2022-08-17T16:44:15.316Z,41.84
2022-08-17T16:46:45.740Z,43.11
2022-08-17T16:49:25.756Z,43.43
2022-08-17T16:52:06.063Z,42.15
2022-08-17T16:54:35.503Z,42.12
2022-08-17T16:57:05.088Z,41.70
2022-08-17T16:59:41.042Z,41.01
2022-08-17T17:02:12.869Z,38.89
2022-08-17T17:04:46.650Z,38.04
2022-08-17T17:07:25.920Z,38.04
2022-08-17T17:09:55.484Z,38.79
2022-08-17T17:13:00.942Z,39.47
2022-08-17T17:15:12.831Z,39.34
2022-08-17T17:17:41.257Z,39.17
2022-08-17T17:20:13.957Z,40.30
2022-08-17T17:22:47.990Z,39.67
2022-08-17T17:25:24.020Z,39.99
2022-08-17T17:27:58.908Z,40.27
2022-08-17T17:30:31.053Z,40.91
2022-08-17T17:33:03.046Z,42.10
2022-08-17T17:35:36.962Z,44.88
2022-08-17T17:38:06.519Z,45.07
2022-08-17T17:40:38.456Z,45.02
2022-08-17T17:43:37.255Z,45.80
2022-08-17T17:46:27.960Z,46.55
2022-08-17T17:48:55.213Z,46.71
2022-08-17T17:51:54.826Z,46.21
2022-08-17T17:54:28.053Z,47.48
2022-08-17T17:57:01.466Z,46.83
2022-08-17T17:59:34.914Z,47.74
2022-08-17T18:02:07.602Z,47.95
2022-08-17T18:04:41.332Z,47.72
2022-08-17T18:07:19.916Z,47.93
2022-08-17T18:10:01.056Z,47.90
2022-08-17T18:12:35.705Z,47.95
2022-08-17T18:15:23.705Z,48.63
2022-08-17T18:18:03.717Z,49.18
2022-08-17T18:20:43.223Z,49.41
2022-08-17T18:23:27.691Z,50.14
2022-08-17T18:25:56.352Z,49.91
2022-08-17T18:28:26.250Z,50.83
2022-08-17T18:31:13.069Z,51.38
2022-08-17T18:33:43.665Z,51.21
2022-08-17T18:36:12.474Z,52.00
2022-08-17T18:38:43.186Z,51.75
2022-08-17T18:41:23.676Z,52.87
2022-08-17T18:44:01.255Z,53.25
2022-08-17T18:46:33.073Z,52.96
2022-08-17T18:49:02.631Z,52.99
2022-08-17T18:51:40.981Z,53.27
2022-08-17T18:54:21.312Z,54.13
2022-08-17T18:56:54.389Z,54.27
2022-08-17T18:59:40.263Z,54.08
2022-08-17T19:02:43.830Z,54.15
2022-08-17T19:05:27.755Z,54.84
2022-08-17T19:07:55.763Z,55.26
2022-08-17T19:10:28.669Z,54.67
2022-08-17T19:13:00.599Z,54.79
2022-08-17T19:15:32.366Z,55.10
2022-08-17T19:18:04.704Z,55.58
2022-08-17T19:20:35.933Z,55.72
2022-08-17T19:23:09.604Z,55.81
2022-08-17T19:25:42.242Z,56.37
2022-08-17T19:28:22.543Z,56.04
2022-08-17T19:30:55.624Z,56.73
2022-08-17T19:33:23.729Z,57.38
2022-08-17T19:36:00.443Z,57.96
2022-08-17T19:38:37.282Z,57.75
2022-08-17T19:41:12.595Z,58.17
2022-08-17T19:43:52.524Z,58.48
2022-08-17T19:46:26.175Z,58.93
2022-08-17T19:49:00.190Z,58.88
2022-08-17T19:51:33.442Z,59.34
2022-08-17T19:54:07.134Z,58.97
2022-08-17T19:56:45.281Z,58.68
2022-08-17T19:59:17.431Z,58.76
2022-08-17T20:01:50.744Z,58.79
2022-08-17T20:04:38.589Z,59.53
2022-08-17T20:07:08.848Z,59.34
2022-08-17T20:09:40.163Z,60.46
2022-08-17T20:12:12.461Z,60.57
2022-08-17T20:14:53.680Z,61.89
2022-08-17T20:17:25.183Z,61.97
2022-08-17T20:19:59.968Z,61.54
2022-08-17T20:22:30.586Z,61.91
2022-08-17T20:25:09.642Z,62.34
2022-08-17T20:27:50.006Z,62.10
2022-08-17T20:30:34.650Z,62.01
2022-08-17T20:33:03.366Z,62.19
2022-08-17T20:35:32.475Z,62.16
2022-08-17T20:38:02.982Z,62.09
2022-08-17T20:40:35.179Z,61.82
2022-08-17T20:43:37.034Z,62.48
2022-08-17T20:46:24.516Z,63.02
2022-08-17T20:48:54.333Z,62.55
2022-08-17T20:51:29.189Z,62.81
2022-08-17T20:54:35.571Z,63.97
2022-08-17T20:57:06.169Z,64.01
2022-08-17T20:59:56.539Z,64.39
2022-08-17T21:02:27.905Z,64.05
2022-08-17T21:05:02.045Z,64.63
2022-08-17T21:07:53.138Z,64.80
2022-08-17T21:10:32.070Z,65.84
2022-08-17T21:13:05.929Z,65.41
2022-08-17T21:15:39.910Z,65.59
2022-08-17T21:18:12.781Z,64.92
2022-08-17T21:20:45.427Z,65.47
2022-08-17T21:23:32.736Z,65.10
2022-08-17T21:26:13.793Z,65.97
2022-08-17T21:29:01.102Z,65.92
2022-08-17T21:31:34.726Z,66.27
2022-08-17T21:34:27.374Z,67.31
2022-08-17T21:36:56.809Z,67.62
2022-08-17T21:39:33.188Z,68.56
2022-08-17T21:42:01.636Z,68.85
2022-08-17T21:44:33.514Z,68.91
2022-08-17T21:47:16.590Z,69.16
2022-08-17T21:49:46.323Z,68.81
2022-08-17T21:52:15.750Z,68.40
2022-08-17T21:54:50.207Z,67.93
2022-08-17T21:57:21.177Z,67.83
2022-08-17T21:59:52.593Z,68.30
2022-08-17T22:02:22.107Z,68.43
2022-08-17T22:05:03.943Z,68.71
2022-08-17T22:07:38.706Z,68.80
2022-08-17T22:10:09.232Z,68.79
2022-08-17T22:12:37.303Z,68.18
2022-08-17T22:15:09.696Z,68.75
2022-08-17T22:17:41.229Z,69.70
2022-08-17T22:20:14.366Z,70.29
2022-08-17T22:23:24.240Z,70.26
2022-08-17T22:26:00.808Z,70.52
2022-08-17T22:28:41.004Z,70.64
2022-08-17T22:31:10.667Z,69.82
2022-08-17T22:33:45.819Z,69.81
2022-08-17T22:36:29.171Z,69.86
2022-08-17T22:38:58.654Z,70.33
2022-08-17T22:41:37.201Z,70.65
2022-08-17T22:44:23.194Z,71.04
2022-08-17T22:47:02.244Z,70.97
2022-08-17T22:49:34.225Z,71.97
2022-08-17T22:52:23.991Z,72.66
2022-08-17T22:55:25.221Z,72.47
2022-08-17T22:58:10.921Z,71.37
2022-08-17T23:00:41.874Z,71.15
2022-08-17T23:03:15.958Z,71.46
2022-08-17T23:05:47.720Z,71.49
2022-08-17T23:08:21.073Z,71.79
2022-08-17T23:10:49.327Z,72.13
2022-08-17T23:13:17.328Z,73.11
2022-08-17T23:15:48.193Z,72.99
2022-08-17T23:18:17.515Z,72.33
2022-08-17T23:20:45.806Z,72.20
2022-08-17T23:23:18.820Z,71.67
2022-08-17T23:25:49.874Z,71.63
2022-08-17T23:28:17.629Z,72.23
2022-08-17T23:30:46.581Z,73.81
2022-08-17T23:33:19.199Z,74.42
2022-08-17T23:35:47.193Z,74.45
2022-08-17T23:38:16.426Z,75.00
2022-08-17T23:40:44.413Z,75.28
2022-08-17T23:43:23.709Z,74.72
2022-08-17T23:45:53.923Z,74.96
2022-08-17T23:48:32.645Z,75.71
2022-08-17T23:51:09.014Z,75.47
2022-08-17T23:53:41.854Z,75.66
2022-08-17T23:56:11.206Z,75.45
2022-08-17T23:58:40.462Z,74.86
